Skip Navigation Links
NOAA logo - Click to go to the NOAA homepage
NOAA's National Weather Service
Alaska Aviation Weather Unit
  NWS logo - Click to go to the NWS homepage
Left Navbar Graphic     21 AKDT = 05 GMT

   
NOAA is celebrating 200 years of science, service, and stewardship. Visit the NOAA 200th celebration Web site to learn more.
USA.gov is the U.S. Government's official Web portal to all Federal, state and local government Web resources and services.
Facebook
NWS on Facebook

AAWU Home :: Display TAF Add Bookmark
METAR PAGN 262356Z AUTO 00000KT 10SM FEW029 SCT065 BKN110 09/05 A2954
     RMK AO2 RAB16E46 SLP993 P0001 60001 T00940050 10106 20083
     53011=

METAR PAGN 270056Z AUTO 08003KT 10SM -RA BKN055 OVC065 09/06 A2954 RMK
     AO2 RAB04 SLP991 P0003 T00890061=

METAR PAGN 270156Z AUTO 12004KT 10SM OVC100 09/06 A2954 RMK AO2 RAE03
     SLP991 P0000 T00940061=

METAR PAGN 270256Z AUTO VRB05KT 10SM -RA FEW037 BKN080 OVC100 09/06
     A2955 RMK AO2 RAB35 SLP996 P0000 60003 T00940061 53003=

METAR PAGN 270356Z AUTO 10004KT 10SM -RA BKN050 OVC070 09/06 A2956 RMK
     AO2 SLP000 P0000 T00890061=

METAR PAGN 270456Z AUTO 08004KT 10SM -RA FEW049 BKN065 OVC110 08/07
     A2958 RMK AO2 SLP004 P0002 T00780067=


NOAA's National Weather Service
Alaska Aviation Weather Unit
6930 Sand Lake Road
Anchorage, AK 99502-1845
Disclaimer
Credits
Glossary
Privacy Policy
About Us
Career Opportunities
Contact AAWU Internet Services Site last modified: April, 17th 2012